Pagrindinis puslapis
METAR-TAF:

METAR-TAF

Oro uostai :

Thiruvananthapuram, Indija

platuma: 08-28N, ilguma: 076-57E, Aukštis: 4 m

Dabartinis oras

Ataskaita buvo paskelbta 12 minutes, ne 22:30 UTC
Ramus vėjas
Temperatūra 28°C
Drėgmė 79%
Slėgis 1009 hPa
Matomumas: 3000 m
Mažai debesys ne aukštis 1500 ft
rūkana

METAR: VOTV 292230Z 00000KT 3000 BR FEW015 28/24 Q1009 NOSIG

Laikas: 04:12 (22:42 UTC)

Prognozė

Ataskaita buvo paskelbta 2 valandos ir 42 minutes, ne 20:00 UTC
Prognozė galioja nuo 29 metu 21 UTC su 30 metu 06 UTC
Vėjas kt iš Šiaurės
Matomumas: 2500 m
Išsisklaidę debesys ne aukštis 1500 ft
rūkana
Tapsmas
nuo 30 metu 02 UTC su 30 metu 03 UTC
Vėjas 2 kt nuo kintamojo kryptimis
Matomumas: 4500 m
Išsisklaidę debesys ne aukštis 1500 ft
migla

TAF: VOTV 292000Z 2921/3006 00000KT 2500 BR SCT015 BECMG 3002/3003 VRB02KT 4500 HZ SCT015

Orai ataskaitas ir orų prognozės (METAR, TAF).

turimą stotys yra geltonos ir raudonos taškus žemėlapyje.

Perkelti pele per norėdami pamatyti stoties vardą.

Tada spustelėkite, norėdami matyti oro stebėjimo ir prognozės.

Norėdami pakeisti žemėlapį: spustelėkite ant žalios mygtukų su juodo kryžiaus žemyn,; žalią mygtuką su brūkšneliu, jei norite nutolinti; arba žalių rodyklių gretimoms žemėlapius.


METAR-TAF: